createdAt,value
2022-08-26T00:02:00.691Z,5.50
2022-08-26T00:04:29.485Z,5.87
2022-08-26T00:06:58.178Z,5.67
2022-08-26T00:09:27.810Z,5.40
2022-08-26T00:11:56.589Z,5.57
2022-08-26T00:14:31.248Z,5.43
2022-08-26T00:17:01.580Z,6.20
2022-08-26T00:19:29.941Z,6.43
2022-08-26T00:21:58.384Z,5.70
2022-08-26T00:24:26.930Z,5.53
2022-08-26T00:26:55.222Z,6.10
2022-08-26T00:29:23.450Z,4.30
2022-08-26T00:31:52.213Z,5.10
2022-08-26T00:34:22.024Z,5.40
2022-08-26T00:36:52.037Z,6.20
2022-08-26T00:39:21.287Z,5.90
2022-08-26T00:41:50.628Z,5.40
2022-08-26T00:44:19.745Z,5.90
2022-08-26T00:46:52.268Z,5.67
2022-08-26T00:49:26.561Z,5.50
2022-08-26T00:52:00.322Z,5.20
2022-08-26T00:54:34.661Z,5.77
2022-08-26T00:57:08.741Z,5.63
2022-08-26T00:59:46.866Z,4.47
2022-08-26T01:02:20.798Z,6.00
2022-08-26T01:04:55.521Z,5.50
2022-08-26T01:07:26.219Z,5.50
2022-08-26T01:09:55.922Z,6.40
2022-08-26T01:12:26.288Z,5.37
2022-08-26T01:14:54.691Z,5.27
2022-08-26T01:17:23.089Z,6.00
2022-08-26T01:19:55.535Z,5.27
2022-08-26T01:22:28.852Z,5.67
2022-08-26T01:24:59.922Z,6.20
2022-08-26T01:27:32.969Z,5.70
2022-08-26T01:30:03.509Z,5.37
2022-08-26T01:32:34.430Z,4.80
2022-08-26T01:35:03.691Z,4.83
2022-08-26T01:37:37.271Z,5.07
2022-08-26T01:40:18.547Z,5.50
2022-08-26T01:42:49.250Z,6.00
2022-08-26T01:45:22.411Z,5.77
2022-08-26T01:47:57.183Z,6.10
2022-08-26T01:50:30.726Z,6.23
2022-08-26T01:53:02.475Z,5.33
2022-08-26T01:55:34.137Z,5.70
2022-08-26T01:58:06.367Z,6.30
2022-08-26T02:00:35.924Z,5.83
2022-08-26T02:03:18.154Z,5.80
2022-08-26T02:05:48.777Z,6.10
2022-08-26T02:08:24.859Z,5.43
2022-08-26T02:10:55.807Z,5.80
2022-08-26T02:13:27.883Z,5.57
2022-08-26T02:15:56.569Z,5.80
2022-08-26T02:18:26.401Z,5.43
2022-08-26T02:20:57.237Z,5.07
2022-08-26T02:23:26.278Z,5.80
2022-08-26T02:26:01.438Z,5.83
2022-08-26T02:28:33.121Z,5.57
2022-08-26T02:31:01.778Z,5.93
2022-08-26T02:33:31.205Z,6.13
2022-08-26T02:36:00.491Z,5.80
2022-08-26T02:38:29.638Z,5.47
2022-08-26T02:40:59.186Z,5.17
2022-08-26T02:43:31.291Z,4.70
2022-08-26T02:46:02.393Z,4.80
2022-08-26T02:48:31.324Z,5.27
2022-08-26T02:51:01.851Z,5.17
2022-08-26T02:53:31.827Z,5.20
2022-08-26T02:56:05.475Z,5.03
2022-08-26T02:58:35.275Z,5.17
2022-08-26T03:01:04.959Z,5.90
2022-08-26T03:03:34.094Z,6.33
2022-08-26T03:06:02.428Z,4.93
2022-08-26T03:08:30.692Z,5.50
2022-08-26T03:10:59.322Z,5.37
2022-08-26T03:13:31.323Z,5.30
2022-08-26T03:16:02.443Z,5.27
2022-08-26T03:18:30.861Z,5.40
2022-08-26T03:20:59.332Z,4.90
2022-08-26T03:23:28.035Z,5.10
2022-08-26T03:25:56.866Z,5.40
2022-08-26T03:28:27.041Z,4.33
2022-08-26T03:30:57.166Z,5.30
2022-08-26T03:33:26.489Z,5.97
2022-08-26T03:35:55.712Z,5.23
2022-08-26T03:38:26.322Z,4.67
2022-08-26T03:40:55.632Z,4.83
2022-08-26T03:43:26.831Z,4.80
2022-08-26T03:45:56.572Z,5.73
2022-08-26T03:48:25.486Z,4.70
2022-08-26T03:50:53.630Z,4.40
2022-08-26T03:53:21.783Z,4.60
2022-08-26T03:55:51.822Z,5.10
2022-08-26T03:58:20.811Z,4.90
2022-08-26T04:00:50.111Z,5.70
2022-08-26T04:03:40.710Z,4.90
2022-08-26T04:06:09.313Z,5.20
2022-08-26T04:08:37.768Z,4.70
2022-08-26T04:11:07.944Z,5.90
2022-08-26T04:13:38.271Z,5.40
2022-08-26T04:16:06.991Z,5.80
2022-08-26T04:18:38.248Z,5.23
2022-08-26T04:21:15.315Z,5.20
2022-08-26T04:23:47.443Z,6.13
2022-08-26T04:26:16.519Z,5.70
2022-08-26T04:28:44.680Z,5.37
2022-08-26T04:31:14.808Z,5.83
2022-08-26T04:33:45.556Z,5.90
2022-08-26T04:36:15.067Z,5.20
2022-08-26T04:38:43.208Z,5.60
2022-08-26T04:41:15.097Z,5.83
2022-08-26T04:43:46.551Z,6.20
2022-08-26T04:46:18.930Z,6.40
2022-08-26T04:48:48.965Z,6.40
2022-08-26T04:51:17.191Z,5.03
2022-08-26T04:53:46.085Z,4.60
2022-08-26T04:56:15.631Z,6.30
2022-08-26T04:58:43.843Z,5.37
2022-08-26T05:01:12.096Z,5.30
2022-08-26T05:03:41.384Z,4.77
2022-08-26T05:06:12.400Z,6.27
2022-08-26T05:08:41.154Z,6.17
2022-08-26T05:11:10.294Z,6.07
2022-08-26T05:13:39.297Z,5.93
2022-08-26T05:16:11.606Z,5.10
2022-08-26T05:18:40.987Z,6.57
2022-08-26T05:21:20.219Z,6.47
2022-08-26T05:23:51.325Z,5.87
2022-08-26T05:26:23.105Z,5.20
2022-08-26T05:28:54.877Z,7.03
2022-08-26T05:31:34.388Z,5.80
2022-08-26T05:34:04.776Z,6.20
2022-08-26T05:36:37.136Z,5.47
2022-08-26T05:39:07.648Z,6.60
2022-08-26T05:41:41.593Z,6.70
2022-08-26T05:44:11.986Z,5.40
2022-08-26T05:46:41.709Z,6.00
2022-08-26T05:49:12.475Z,5.53
2022-08-26T05:51:46.465Z,5.13
2022-08-26T05:54:21.973Z,5.73
2022-08-26T05:56:50.588Z,6.73
2022-08-26T05:59:24.518Z,5.73
2022-08-26T06:01:54.867Z,6.53
2022-08-26T06:04:26.783Z,6.00
2022-08-26T06:07:00.576Z,6.33
2022-08-26T06:09:28.811Z,5.60
2022-08-26T06:11:58.934Z,5.40
2022-08-26T06:14:27.162Z,6.27
2022-08-26T06:16:55.519Z,6.03
2022-08-26T06:19:24.413Z,5.90
2022-08-26T06:21:54.743Z,5.73
2022-08-26T06:24:41.966Z,5.60
2022-08-26T06:27:15.154Z,6.00
2022-08-26T06:29:43.639Z,6.27
2022-08-26T06:32:11.851Z,6.73
2022-08-26T06:34:40.254Z,8.03
2022-08-26T06:37:09.013Z,6.03
2022-08-26T06:39:41.175Z,6.23
2022-08-26T06:42:11.784Z,6.13
2022-08-26T06:44:41.120Z,6.03
2022-08-26T06:47:09.468Z,6.10
2022-08-26T06:49:38.368Z,6.93
2022-08-26T06:52:08.146Z,7.10
2022-08-26T06:54:37.176Z,6.90
2022-08-26T06:57:08.914Z,7.53
2022-08-26T06:59:37.222Z,5.87
2022-08-26T07:02:06.259Z,7.50
2022-08-26T07:04:36.890Z,7.70
2022-08-26T07:07:05.424Z,7.07
2022-08-26T07:09:35.448Z,7.07
2022-08-26T07:12:06.924Z,6.80
2022-08-26T07:14:37.370Z,6.97
2022-08-26T07:17:07.345Z,5.70
2022-08-26T07:19:38.270Z,7.50
2022-08-26T07:22:08.575Z,6.90
2022-08-26T07:24:40.428Z,6.53
2022-08-26T07:27:12.999Z,6.47
2022-08-26T07:29:43.569Z,6.77
2022-08-26T07:32:13.359Z,7.00
2022-08-26T07:34:42.206Z,8.17
2022-08-26T07:37:10.741Z,6.40
2022-08-26T07:39:40.387Z,6.10
2022-08-26T07:42:10.130Z,7.20
2022-08-26T07:44:39.787Z,7.10
2022-08-26T07:47:25.276Z,7.70
2022-08-26T07:49:55.197Z,7.50
2022-08-26T07:52:26.584Z,7.10
2022-08-26T07:54:55.615Z,7.10
2022-08-26T07:57:24.320Z,6.43
2022-08-26T07:59:54.043Z,6.77
2022-08-26T08:02:26.290Z,7.30
2022-08-26T08:04:54.705Z,6.33
2022-08-26T08:07:25.748Z,6.40
2022-08-26T08:10:11.513Z,6.70
2022-08-26T08:12:40.382Z,6.70
2022-08-26T08:15:11.639Z,7.20
2022-08-26T08:17:43.484Z,8.43
2022-08-26T08:20:13.550Z,7.50
2022-08-26T08:22:42.667Z,6.70
2022-08-26T08:25:12.456Z,7.93
2022-08-26T08:27:42.525Z,7.00
2022-08-26T08:30:13.859Z,6.63
2022-08-26T08:32:44.582Z,7.20
2022-08-26T08:35:14.699Z,6.43
2022-08-26T08:37:44.381Z,6.07
2022-08-26T08:40:18.494Z,6.60
2022-08-26T08:45:26.984Z,6.97
2022-08-26T08:47:58.943Z,7.80
2022-08-26T08:50:31.418Z,7.30
2022-08-26T08:53:13.727Z,7.07
2022-08-26T09:03:31.090Z,7.00
2022-08-26T09:06:02.634Z,5.47
2022-08-26T09:08:35.860Z,5.10
2022-08-26T09:11:05.361Z,6.07
2022-08-26T09:13:35.721Z,6.10
2022-08-26T09:16:08.380Z,8.10
2022-08-26T09:19:02.916Z,7.40
2022-08-26T09:21:32.418Z,7.23
2022-08-26T09:24:01.505Z,8.10
2022-08-26T09:26:31.876Z,6.90
2022-08-26T09:29:02.576Z,7.00
2022-08-26T09:31:33.663Z,7.73
2022-08-26T09:34:17.241Z,7.27
2022-08-26T09:36:49.219Z,6.70
2022-08-26T09:39:30.430Z,7.77
2022-08-26T09:42:09.738Z,6.73
2022-08-26T09:44:56.689Z,8.80
2022-08-26T09:47:28.604Z,7.10
2022-08-26T09:50:09.459Z,7.47
2022-08-26T09:52:40.642Z,6.47
2022-08-26T09:55:15.672Z,6.53
2022-08-26T09:57:51.228Z,7.07
2022-08-26T10:00:29.111Z,6.67
2022-08-26T10:02:58.310Z,7.20
2022-08-26T10:05:41.089Z,7.07
2022-08-26T10:08:22.988Z,8.57
2022-08-26T10:10:53.160Z,6.50
2022-08-26T10:13:27.998Z,6.80
2022-08-26T10:16:05.614Z,6.20
2022-08-26T10:18:37.038Z,7.03
2022-08-26T10:21:12.064Z,7.23
2022-08-26T10:23:43.945Z,7.13
2022-08-26T10:26:17.569Z,7.43
2022-08-26T10:28:54.192Z,10.33
2022-08-26T10:31:28.947Z,7.80
2022-08-26T10:34:00.443Z,7.10
2022-08-26T10:37:14.819Z,6.70
2022-08-26T10:39:55.246Z,6.53
2022-08-26T10:42:35.517Z,6.63
2022-08-26T10:45:15.013Z,6.57
2022-08-26T10:47:50.865Z,6.57
2022-08-26T10:50:21.043Z,6.67
2022-08-26T10:53:03.194Z,6.90
2022-08-26T10:55:37.388Z,7.13
2022-08-26T10:58:26.725Z,6.57
2022-08-26T11:01:23.268Z,6.07
2022-08-26T11:03:58.877Z,7.00
2022-08-26T11:06:29.775Z,6.47
2022-08-26T11:09:02.681Z,7.90
2022-08-26T11:11:51.235Z,7.37
2022-08-26T11:14:41.016Z,7.83
2022-08-26T11:17:58.436Z,7.47
2022-08-26T11:20:41.556Z,6.47
2022-08-26T11:23:41.685Z,6.20
2022-08-26T11:26:35.852Z,7.40
2022-08-26T11:29:12.044Z,6.77
2022-08-26T11:31:56.553Z,6.00
2022-08-26T11:34:52.235Z,6.00
2022-08-26T11:39:57.312Z,6.57
2022-08-26T11:42:36.957Z,6.40
2022-08-26T11:45:18.584Z,6.00
2022-08-26T11:47:49.366Z,6.30
2022-08-26T11:50:21.561Z,5.53
2022-08-26T11:52:54.075Z,6.20
2022-08-26T11:55:23.478Z,6.13
2022-08-26T11:57:57.322Z,6.23
2022-08-26T12:00:33.399Z,6.10
2022-08-26T12:03:07.635Z,6.40
2022-08-26T12:05:43.907Z,6.43
2022-08-26T12:08:17.626Z,6.00
2022-08-26T12:10:46.219Z,6.30
2022-08-26T12:13:23.296Z,6.03
2022-08-26T12:15:55.921Z,6.00
2022-08-26T12:18:29.511Z,7.10
2022-08-26T12:21:01.487Z,6.27
2022-08-26T12:23:41.770Z,6.00
2022-08-26T12:26:20.626Z,6.17
2022-08-26T12:28:53.607Z,6.50
2022-08-26T12:31:25.278Z,6.40
2022-08-26T12:33:54.234Z,5.90
2022-08-26T12:36:28.545Z,6.27
2022-08-26T12:38:58.563Z,6.97
2022-08-26T12:41:43.855Z,5.80
2022-08-26T12:44:54.247Z,5.40
2022-08-26T12:47:32.704Z,5.63
2022-08-26T12:50:18.412Z,5.93
2022-08-26T12:52:57.530Z,6.23
2022-08-26T12:55:36.631Z,6.67
2022-08-26T12:58:15.278Z,7.17
2022-08-26T13:00:46.384Z,6.83
2022-08-26T13:03:32.689Z,6.10
2022-08-26T13:06:17.095Z,6.13
2022-08-26T13:08:48.631Z,6.10
2022-08-26T13:11:20.801Z,6.33
2022-08-26T13:13:51.768Z,7.27
2022-08-26T13:16:22.199Z,7.20
2022-08-26T13:18:52.541Z,6.23
2022-08-26T13:21:22.778Z,6.17
2022-08-26T13:23:51.946Z,5.80
2022-08-26T13:26:20.553Z,5.53
2022-08-26T13:29:01.549Z,6.23
2022-08-26T13:31:34.650Z,7.03
2022-08-26T13:34:03.664Z,6.60
2022-08-26T13:36:32.049Z,6.10
2022-08-26T13:39:00.753Z,7.07
2022-08-26T13:41:29.133Z,5.83
2022-08-26T13:43:58.884Z,6.17
2022-08-26T13:46:28.293Z,6.53
2022-08-26T13:48:58.593Z,7.00
2022-08-26T13:51:28.653Z,7.37
2022-08-26T13:53:57.501Z,7.60
2022-08-26T13:56:27.523Z,6.77
2022-08-26T13:58:56.400Z,6.60
2022-08-26T14:01:25.340Z,7.20
2022-08-26T14:03:53.580Z,6.23
2022-08-26T14:06:23.884Z,6.10
2022-08-26T14:08:52.040Z,5.90
2022-08-26T14:11:20.619Z,6.10
2022-08-26T14:13:48.785Z,7.37
2022-08-26T14:16:23.147Z,5.40
2022-08-26T14:18:51.781Z,6.37
2022-08-26T14:21:20.662Z,6.37
2022-08-26T14:23:50.292Z,7.23
2022-08-26T14:26:28.443Z,6.80
2022-08-26T14:28:59.128Z,7.37
2022-08-26T14:31:29.337Z,6.63
2022-08-26T14:33:59.839Z,6.87
2022-08-26T14:36:32.429Z,7.00
2022-08-26T14:39:05.071Z,6.50
2022-08-26T14:41:34.370Z,7.30
2022-08-26T14:44:05.792Z,6.60
2022-08-26T14:46:43.769Z,6.23
2022-08-26T14:49:12.125Z,6.57
2022-08-26T14:51:41.032Z,6.73
2022-08-26T14:54:14.869Z,6.50
2022-08-26T14:56:47.267Z,7.10
2022-08-26T14:59:17.685Z,8.17
2022-08-26T15:01:46.474Z,8.17
2022-08-26T15:04:14.951Z,7.10
2022-08-26T15:06:43.304Z,7.70
2022-08-26T15:09:13.438Z,6.80
2022-08-26T15:11:41.571Z,6.10
2022-08-26T15:14:14.698Z,6.50
2022-08-26T15:16:48.040Z,6.40
2022-08-26T15:19:16.553Z,6.80
2022-08-26T15:21:45.757Z,7.23
2022-08-26T15:24:17.296Z,6.60
2022-08-26T15:26:46.810Z,5.67
2022-08-26T15:29:15.516Z,7.00
2022-08-26T15:31:43.850Z,5.90
2022-08-26T15:34:16.694Z,6.17
2022-08-26T15:36:46.982Z,6.50
2022-08-26T15:39:18.260Z,6.67
2022-08-26T15:41:46.503Z,7.20
2022-08-26T15:44:17.945Z,7.60
2022-08-26T15:46:46.750Z,7.23
2022-08-26T15:49:17.505Z,6.40
2022-08-26T15:51:50.381Z,6.57
2022-08-26T15:54:22.488Z,7.17
2022-08-26T15:56:52.446Z,7.13
2022-08-26T15:59:22.509Z,5.60
2022-08-26T16:01:50.863Z,6.57
2022-08-26T16:04:19.122Z,5.97
2022-08-26T16:06:50.434Z,6.90
2022-08-26T16:09:21.322Z,7.37
2022-08-26T16:11:50.430Z,7.57
2022-08-26T16:14:18.578Z,7.57
2022-08-26T16:16:47.234Z,8.50
2022-08-26T16:19:15.542Z,8.70
2022-08-26T16:21:44.736Z,9.23
2022-08-26T16:24:13.167Z,10.40
2022-08-26T16:26:45.340Z,8.77
2022-08-26T16:29:15.544Z,10.87
2022-08-26T16:36:35.655Z,7.00
2022-08-26T16:39:03.943Z,7.23
2022-08-26T16:41:32.894Z,8.00
2022-08-26T16:44:02.830Z,7.37
2022-08-26T16:46:31.381Z,7.27
2022-08-26T16:49:03.688Z,6.80
2022-08-26T16:51:38.080Z,7.40
2022-08-26T16:54:08.830Z,7.53
2022-08-26T16:56:37.892Z,7.40
2022-08-26T16:59:11.743Z,7.00
2022-08-26T17:01:40.093Z,7.40
2022-08-26T17:04:08.373Z,7.90
2022-08-26T17:06:36.642Z,6.80
2022-08-26T17:09:05.517Z,7.07
2022-08-26T17:11:34.219Z,7.13
2022-08-26T17:14:02.967Z,6.70
2022-08-26T17:16:33.400Z,8.07
2022-08-26T17:19:01.780Z,7.47
2022-08-26T17:21:30.151Z,7.73
2022-08-26T17:23:58.609Z,7.47
2022-08-26T17:26:27.113Z,7.23
2022-08-26T17:28:56.047Z,7.10
2022-08-26T17:31:25.206Z,7.73
2022-08-26T17:33:55.581Z,7.13
2022-08-26T17:36:27.521Z,7.70
2022-08-26T17:38:57.563Z,7.60
2022-08-26T17:41:26.431Z,7.43
2022-08-26T17:43:55.067Z,7.73
2022-08-26T17:46:23.638Z,7.67
2022-08-26T17:48:51.803Z,7.67
2022-08-26T17:51:23.563Z,7.30
2022-08-26T17:53:52.671Z,7.40
2022-08-26T17:56:24.271Z,8.73
2022-08-26T17:58:53.944Z,7.80
2022-08-26T18:01:26.106Z,8.27
2022-08-26T18:04:00.091Z,8.93
2022-08-26T18:06:31.679Z,8.03
2022-08-26T18:09:00.967Z,9.07
2022-08-26T18:11:29.982Z,8.90
2022-08-26T18:13:58.195Z,9.30
2022-08-26T18:16:26.564Z,9.40
2022-08-26T18:18:55.330Z,8.40
2022-08-26T18:21:25.856Z,8.97
2022-08-26T18:23:56.421Z,8.47
2022-08-26T18:26:27.906Z,9.27
2022-08-26T18:28:57.384Z,8.20
2022-08-26T18:31:26.160Z,8.63
2022-08-26T18:33:54.497Z,8.97
2022-08-26T18:36:25.628Z,8.97
2022-08-26T18:38:56.022Z,9.30
2022-08-26T18:41:27.110Z,9.77
2022-08-26T18:43:56.091Z,8.93
2022-08-26T18:46:26.150Z,10.33
2022-08-26T18:48:54.880Z,9.47
2022-08-26T18:51:25.316Z,9.60
2022-08-26T18:53:54.278Z,9.03
2022-08-26T18:56:24.278Z,8.53
2022-08-26T18:58:52.698Z,10.30
2022-08-26T19:01:25.505Z,9.03
2022-08-26T19:03:55.852Z,10.83
2022-08-26T19:06:25.355Z,9.10
2022-08-26T19:08:53.936Z,9.40
2022-08-26T19:11:32.484Z,10.03
2022-08-26T19:14:07.792Z,9.63
2022-08-26T19:16:37.500Z,9.53
2022-08-26T19:19:07.090Z,9.00
2022-08-26T19:21:37.079Z,8.30
2022-08-26T19:24:09.388Z,8.70
2022-08-26T19:26:39.311Z,8.50
2022-08-26T19:29:07.773Z,8.10
2022-08-26T19:31:36.503Z,8.27
2022-08-26T19:34:05.467Z,9.37
2022-08-26T19:36:34.520Z,8.30
2022-08-26T19:39:07.665Z,8.50
2022-08-26T19:41:40.807Z,8.20
2022-08-26T19:44:13.037Z,8.80
2022-08-26T19:46:41.747Z,8.57
2022-08-26T19:49:09.877Z,8.07
2022-08-26T19:51:38.170Z,7.93
2022-08-26T19:54:06.629Z,9.60
2022-08-26T19:56:36.643Z,9.63
2022-08-26T19:59:06.143Z,8.77
2022-08-26T20:01:34.421Z,8.37
2022-08-26T20:04:03.023Z,8.10
2022-08-26T20:06:31.488Z,8.40
2022-08-26T20:08:59.726Z,9.40
2022-08-26T20:11:28.218Z,8.40
2022-08-26T20:13:57.231Z,8.20
2022-08-26T20:16:26.994Z,10.33
2022-08-26T20:19:12.616Z,9.63
2022-08-26T20:21:42.610Z,9.40
2022-08-26T20:24:13.653Z,10.10
2022-08-26T20:26:43.675Z,10.40
2022-08-26T20:29:13.680Z,10.70
2022-08-26T20:31:44.222Z,10.97
2022-08-26T20:34:13.332Z,8.77
2022-08-26T20:36:44.662Z,9.63
2022-08-26T20:39:13.148Z,10.90
2022-08-26T20:41:41.614Z,8.50
2022-08-26T20:44:10.816Z,9.77
2022-08-26T20:46:39.004Z,10.07
2022-08-26T20:49:09.099Z,9.00
2022-08-26T20:51:38.612Z,9.07
2022-08-26T20:54:08.310Z,8.83
2022-08-26T20:56:37.914Z,9.60
2022-08-26T20:59:07.659Z,10.27
2022-08-26T21:01:42.412Z,8.97
2022-08-26T21:04:15.414Z,10.87
2022-08-26T21:06:47.239Z,9.43
2022-08-26T21:09:21.488Z,8.33
2022-08-26T21:11:49.978Z,10.47
2022-08-26T21:14:19.087Z,11.20
2022-08-26T21:16:48.156Z,10.30
2022-08-26T21:19:19.807Z,10.23
2022-08-26T21:21:49.340Z,10.07
2022-08-26T21:24:18.183Z,9.90
2022-08-26T21:26:49.033Z,10.23
2022-08-26T21:29:17.406Z,9.47
2022-08-26T21:31:46.685Z,9.70
2022-08-26T21:34:15.878Z,10.37
2022-08-26T21:36:46.298Z,11.47
2022-08-26T21:39:14.942Z,9.07
2022-08-26T21:41:44.168Z,9.73
2022-08-26T21:44:13.857Z,10.23
2022-08-26T21:46:44.501Z,12.70
2022-08-26T21:49:15.391Z,9.73
2022-08-26T21:51:47.494Z,9.53
2022-08-26T21:54:15.937Z,10.53
2022-08-26T21:56:47.255Z,10.87
2022-08-26T21:59:17.600Z,10.47
2022-08-26T22:01:46.135Z,10.97
2022-08-26T22:04:14.408Z,11.13
2022-08-26T22:06:44.629Z,10.33
2022-08-26T22:09:15.670Z,12.90
2022-08-26T22:11:44.499Z,9.77
2022-08-26T22:14:13.001Z,10.70
2022-08-26T22:16:41.699Z,8.20
2022-08-26T22:19:20.054Z,9.37
2022-08-26T22:21:50.210Z,9.63
2022-08-26T22:24:21.082Z,9.90
2022-08-26T22:26:50.134Z,8.37
2022-08-26T22:29:18.861Z,9.10
2022-08-26T22:31:47.453Z,8.27
2022-08-26T22:34:17.493Z,11.87
2022-08-26T22:36:49.180Z,9.43
2022-08-26T22:39:21.090Z,9.07
2022-08-26T22:41:49.870Z,8.80
2022-08-26T22:44:19.485Z,10.17
2022-08-26T22:46:48.434Z,9.97
2022-08-26T22:49:17.155Z,10.47
2022-08-26T22:51:45.834Z,9.00
2022-08-26T22:54:14.435Z,11.03
2022-08-26T22:56:44.793Z,9.80
2022-08-26T22:59:13.588Z,10.70
2022-08-26T23:01:44.787Z,9.53
2022-08-26T23:04:13.520Z,9.43
2022-08-26T23:06:47.710Z,9.43
2022-08-26T23:09:18.429Z,8.70
2022-08-26T23:11:49.808Z,8.47
2022-08-26T23:14:19.705Z,9.20
2022-08-26T23:16:49.365Z,10.53
2022-08-26T23:19:21.353Z,10.20
2022-08-26T23:21:50.645Z,10.57
2022-08-26T23:24:19.432Z,10.00
2022-08-26T23:26:49.665Z,9.83
2022-08-26T23:29:17.943Z,10.60
2022-08-26T23:31:46.295Z,10.07
2022-08-26T23:34:32.309Z,8.57
2022-08-26T23:37:01.460Z,10.10
2022-08-26T23:39:30.196Z,9.13
2022-08-26T23:42:01.771Z,10.50
2022-08-26T23:44:30.694Z,11.83
2022-08-26T23:46:59.210Z,10.53
2022-08-26T23:49:28.068Z,11.70
2022-08-26T23:52:13.647Z,11.17
2022-08-26T23:54:41.919Z,10.23
2022-08-26T23:57:11.740Z,11.17
2022-08-26T23:59:40.319Z,8.77
